Time;durP1;ratioP1;P1;durP2;ratioP2;P2;SDS_P1;SDS_P2;PMS_P1;PMS_P2;Temp;Humidity;BMP_temperature;BMP_pressure;BME280_temperature;BME280_humidity;BME280_pressure;Samples;Min_cycle;Max_cycle;Signal;HPM_P1;HPM_P2
2021/12/12 02:52:50;;;;;;;2.78;1.63;;;;;;;0.08;78.08;94468.06;4944371;23;20408;-85
2021/12/12 02:55:27;;;;;;;2.70;1.50;;;;;;;-0.05;79.00;94478.38;4918001;29;20031;-85
2021/12/12 02:57:54;;;;;;;4.30;1.65;;;;;;;-0.04;78.14;94472.22;4922720;29;20034;-85
2021/12/12 03:00:22;;;;;;;2.65;1.50;;;;;;;0.07;77.36;94474.22;4922644;29;20027;-85
2021/12/12 03:02:56;;;;;;;5.30;1.98;;;;;;;-0.08;78.73;94478.75;4922154;29;20027;-85
2021/12/12 03:05:25;;;;;;;3.13;1.70;;;;;;;-0.15;80.35;94482.13;4923908;29;20035;-84
2021/12/12 03:07:51;;;;;;;4.30;1.73;;;;;;;-0.12;79.89;94478.34;4922907;29;20090;-87
2021/12/12 03:10:21;;;;;;;2.83;1.60;;;;;;;-0.13;79.06;94474.19;4917468;29;20352;-87
2021/12/12 03:12:47;;;;;;;4.95;1.55;;;;;;;-0.19;81.70;94486.06;4906592;29;20050;-87
2021/12/12 03:15:28;;;;;;;2.05;1.40;;;;;;;-0.37;81.87;94491.78;4922735;29;20031;-87
2021/12/12 03:17:55;;;;;;;3.17;1.90;;;;;;;-0.33;81.07;94485.28;4907291;29;20078;-87
2021/12/12 03:20:26;;;;;;;3.10;1.63;;;;;;;-0.25;80.73;94498.94;4930525;29;20031;-87
2021/12/12 03:23:06;;;;;;;4.55;1.80;;;;;;;-0.49;83.31;94494.16;4938073;29;20333;-87
2021/12/12 03:25:38;;;;;;;3.33;1.60;;;;;;;-0.54;83.64;94495.72;4922722;29;20340;-87
2021/12/12 03:28:05;;;;;;;3.63;1.65;;;;;;;-0.44;82.55;94496.16;4939763;29;20027;-87
2021/12/12 03:30:31;;;;;;;3.05;1.70;;;;;;;-0.51;82.69;94509.00;4922948;29;20038;-87
2021/12/12 03:32:56;;;;;;;3.78;1.85;;;;;;;-0.65;83.56;94508.16;4938030;29;20040;-87
2021/12/12 03:35:22;;;;;;;3.67;1.70;;;;;;;-0.61;83.30;94506.81;4938787;29;20043;-87
2021/12/12 03:37:47;;;;;;;3.35;1.70;;;;;;;-0.65;84.59;94505.56;4940432;29;20043;-87
2021/12/12 03:40:19;;;;;;;3.30;1.83;;;;;;;-0.64;83.80;94517.50;4944833;29;20032;-87
2021/12/12 03:42:47;;;;;;;2.80;1.60;;;;;;;-0.20;79.39;94504.31;4944379;29;20023;-87
2021/12/12 03:45:14;;;;;;;3.80;1.75;;;;;;;-0.59;81.10;94515.13;4944813;29;20023;-87
2021/12/12 03:47:45;;;;;;;3.90;1.40;;;;;;;-0.74;85.72;94510.09;4929097;29;20381;-87
2021/12/12 03:50:15;;;;;;;3.95;1.60;;;;;;;-0.91;90.31;94506.28;4944733;29;20110;-87
2021/12/12 03:52:42;;;;;;;3.08;1.75;;;;;;;-0.98;91.55;94510.63;4944166;29;20032;-87
2021/12/12 03:55:10;;;;;;;4.03;1.95;;;;;;;-1.21;93.59;94514.25;4928977;29;20031;-87
2021/12/12 03:57:37;;;;;;;5.60;1.80;;;;;;;-0.84;90.03;94517.41;4944694;29;20202;-87
2021/12/12 04:00:06;;;;;;;3.40;1.85;;;;;;;-0.94;90.15;94517.75;4944632;29;20436;-87
2021/12/12 04:02:31;;;;;;;5.22;2.08;;;;;;;-1.05;89.04;94513.94;4943931;29;20141;-87
2021/12/12 04:04:57;;;;;;;5.28;2.13;;;;;;;-1.04;88.13;94522.47;4944623;29;20055;-87
2021/12/12 04:07:26;;;;;;;4.60;1.80;;;;;;;-0.94;87.22;94528.03;4945732;29;20027;-87
2021/12/12 04:09:53;;;;;;;3.00;1.50;;;;;;;-0.81;84.79;94534.22;4944522;29;20035;-87
2021/12/12 04:12:21;;;;;;;2.60;1.33;;;;;;;-0.70;82.92;94527.75;4944287;29;20028;-87
2021/12/12 04:14:48;;;;;;;3.85;1.75;;;;;;;-0.26;78.95;94534.22;4928836;29;20503;-87
2021/12/12 04:17:19;;;;;;;6.32;1.80;;;;;;;-0.46;79.49;94534.94;4944491;29;20428;-87
2021/12/12 04:19:48;;;;;;;2.63;1.65;;;;;;;-0.65;81.44;94540.81;4944246;29;20028;-87
2021/12/12 04:22:14;;;;;;;4.50;2.00;;;;;;;-0.74;80.35;94547.94;4944058;29;20027;-87
2021/12/12 04:24:43;;;;;;;4.53;1.73;;;;;;;-0.82;81.86;94543.72;4928463;29;20030;-87
2021/12/12 04:27:10;;;;;;;2.72;1.50;;;;;;;-0.85;82.85;94546.69;4928689;29;20028;-87
2021/12/12 04:29:42;;;;;;;4.47;1.92;;;;;;;-0.93;85.51;94554.56;4928944;29;20453;-87
2021/12/12 04:32:13;;;;;;;4.32;1.80;;;;;;;-1.03;86.97;94560.06;4912128;29;20028;-87
2021/12/12 04:34:43;;;;;;;4.00;1.77;;;;;;;-1.10;89.59;94569.50;4928683;29;20027;-87
2021/12/12 04:37:09;;;;;;;3.28;1.73;;;;;;;-1.20;92.68;94575.78;4928657;29;20325;-87
2021/12/12 04:39:38;;;;;;;3.28;1.73;;;;;;;-1.24;94.26;94568.63;4944306;29;20058;-87
2021/12/12 04:42:12;;;;;;;2.83;1.70;;;;;;;-1.50;100.00;94577.75;4942166;29;20028;-87
2021/12/12 04:44:40;;;;;;;3.40;1.60;;;;;;;-1.86;100.00;94576.84;4928081;29;20027;-87
2021/12/12 04:50:26;;;;;;;1.73;1.27;;;;;;;-1.97;100.00;94587.63;4924132;29;20342;-87
2021/12/12 04:53:28;;;;;;;2.72;1.58;;;;;;;-1.95;100.00;94588.22;4924784;29;20038;-87
2021/12/12 04:56:05;;;;;;;3.70;1.73;;;;;;;-1.97;100.00;94596.13;4904802;29;20047;-87
2021/12/12 04:58:49;;;;;;;3.80;1.58;;;;;;;-1.79;100.00;94597.47;4923727;29;20329;-87
2021/12/12 05:01:30;;;;;;;3.38;2.10;;;;;;;-1.74;100.00;94598.50;4905371;29;20031;-87
2021/12/12 05:04:19;;;;;;;2.60;1.50;;;;;;;-1.74;100.00;94607.97;4924957;29;20065;-87
2021/12/12 05:07:06;;;;;;;7.10;1.75;;;;;;;-1.83;100.00;94607.31;4925166;29;20455;-87
2021/12/12 05:09:43;;;;;;;3.80;1.67;;;;;;;-1.76;100.00;94609.94;4924949;29;20027;-87
2021/12/12 05:12:30;;;;;;;3.90;2.20;;;;;;;-1.63;99.71;94620.34;4924694;29;20032;-87
2021/12/12 05:15:05;;;;;;;3.13;1.50;;;;;;;-1.74;99.32;94611.34;4924913;29;20031;-87
2021/12/12 05:17:40;;;;;;;3.13;1.70;;;;;;;-1.47;95.55;94615.91;4909423;29;20043;-87
2021/12/12 05:20:13;;;;;;;3.85;1.70;;;;;;;-1.61;97.79;94623.50;4924830;29;20062;-87
2021/12/12 05:22:49;;;;;;;3.83;1.98;;;;;;;-1.51;95.30;94622.41;4941429;29;20024;-87
2021/12/12 05:25:20;;;;;;;4.32;1.98;;;;;;;-1.45;94.21;94631.94;4941841;29;20024;-87
2021/12/12 05:27:48;;;;;;;3.63;1.98;;;;;;;-1.32;92.25;94633.84;4924684;29;20035;-87
2021/12/12 05:30:18;;;;;;;3.20;1.73;;;;;;;-1.33;91.42;94638.16;4924671;29;20035;-87
2021/12/12 05:32:45;;;;;;;3.30;1.65;;;;;;;-1.18;88.34;94639.88;4940208;29;20045;-87
2021/12/12 05:35:12;;;;;;;4.75;1.90;;;;;;;-1.05;86.16;94645.09;4924732;29;20333;-87
2021/12/12 05:37:38;;;;;;;3.78;1.83;;;;;;;-1.09;85.72;94651.63;4924467;29;20074;-87
2021/12/12 05:40:06;;;;;;;3.42;1.70;;;;;;;-1.18;85.88;94643.25;4941516;29;20028;-87
2021/12/12 05:42:32;;;;;;;3.65;1.75;;;;;;;-1.25;85.72;94654.47;4923967;29;20023;-87
2021/12/12 05:44:59;;;;;;;4.68;1.65;;;;;;;-1.15;85.70;94655.72;4924381;29;20341;-87
2021/12/12 05:47:26;;;;;;;3.33;2.03;;;;;;;-1.06;84.73;94658.94;4924384;29;20031;-87
2021/12/12 05:49:51;;;;;;;3.38;1.67;;;;;;;-1.02;82.11;94662.72;4940198;29;20034;-87
2021/12/12 05:52:19;;;;;;;3.60;1.60;;;;;;;-1.13;81.45;94670.97;4940633;29;20035;-87
2021/12/12 05:54:47;;;;;;;2.50;1.38;;;;;;;-1.09;80.73;94672.19;4924213;29;20034;-87
2021/12/12 05:57:16;;;;;;;4.88;2.03;;;;;;;-0.76;79.26;94673.41;4908588;29;20439;-86
2021/12/12 05:59:42;;;;;;;2.50;1.58;;;;;;;-0.95;82.11;94674.84;4924214;29;20031;-87
2021/12/12 06:02:08;;;;;;;4.70;1.95;;;;;;;-1.09;87.47;94685.03;4923638;29;20043;-87
2021/12/12 06:04:34;;;;;;;4.07;2.25;;;;;;;-1.23;88.24;94696.19;4924175;29;20035;-87
2021/12/12 06:07:03;;;;;;;5.28;2.45;;;;;;;-1.40;95.44;94696.47;4924082;29;20031;-87
2021/12/12 06:09:32;;;;;;;6.15;2.60;;;;;;;-1.58;95.55;94696.88;4924112;29;20035;-87
2021/12/12 06:12:00;;;;;;;5.50;2.60;;;;;;;-1.68;97.81;94697.19;4907892;29;20039;-87
2021/12/12 06:14:26;;;;;;;10.45;2.92;;;;;;;-1.76;97.38;94700.66;4906479;29;20038;-88
2021/12/12 06:16:51;;;;;;;6.70;2.30;;;;;;;-1.66;93.62;94700.34;4905454;29;20032;-87
2021/12/12 06:19:20;;;;;;;3.80;1.95;;;;;;;-1.64;91.48;94703.53;4905149;29;20046;-87
2021/12/12 06:21:50;;;;;;;4.28;2.25;;;;;;;-1.78;98.01;94699.25;4904397;29;20115;-87
2021/12/12 06:24:15;;;;;;;4.32;1.63;;;;;;;-1.72;93.67;94711.38;4904998;29;20512;-87
2021/12/12 06:26:42;;;;;;;3.13;1.65;;;;;;;-1.44;85.96;94721.72;4922946;29;20040;-87
2021/12/12 06:29:08;;;;;;;3.15;1.60;;;;;;;-1.43;84.92;94715.59;4907772;29;20445;-87
2021/12/12 06:31:42;;;;;;;5.65;1.65;;;;;;;-1.35;84.24;94727.53;4923046;29;20035;-87
2021/12/12 06:34:08;;;;;;;4.05;1.70;;;;;;;-1.53;96.43;94733.09;4907982;29;20070;-87
2021/12/12 06:36:33;;;;;;;3.40;1.70;;;;;;;-1.80;100.00;94737.94;4907971;29;20060;-88
2021/12/12 06:38:59;;;;;;;3.80;1.65;;;;;;;-2.08;100.00;94732.69;4907695;29;20031;-87
2021/12/12 06:41:25;;;;;;;2.85;1.58;;;;;;;-2.28;100.00;94741.72;4907540;29;20035;-88
2021/12/12 06:43:52;;;;;;;3.15;1.90;;;;;;;-2.46;100.00;94744.63;4923553;29;20042;-88
2021/12/12 06:46:20;;;;;;;5.03;1.95;;;;;;;-2.45;100.00;94745.44;4923427;29;20031;-88
2021/12/12 06:48:46;;;;;;;3.35;1.70;;;;;;;-2.49;100.00;94750.13;4907789;29;20058;-88
2021/12/12 06:51:12;;;;;;;3.63;1.73;;;;;;;-2.42;100.00;94753.59;4907761;29;20035;-88
2021/12/12 06:53:40;;;;;;;4.80;2.15;;;;;;;-2.42;100.00;94768.19;4922650;29;20044;-88
2021/12/12 06:56:08;;;;;;;3.83;1.50;;;;;;;-2.31;100.00;94772.06;4923261;29;20118;-88
2021/12/12 06:58:35;;;;;;;2.80;1.70;;;;;;;-2.32;100.00;94770.47;4940084;29;20031;-88
2021/12/12 07:01:08;;;;;;;2.35;1.48;;;;;;;-2.25;100.00;94773.13;4939133;29;20041;-87
2021/12/12 07:03:34;;;;;;;3.17;1.50;;;;;;;-2.23;100.00;94779.69;4922793;29;20341;-87
2021/12/12 07:06:00;;;;;;;3.58;1.58;;;;;;;-2.09;100.00;94775.53;4907475;29;20130;-87
2021/12/12 07:08:26;;;;;;;2.40;1.42;;;;;;;-1.90;100.00;94769.06;4923010;29;20238;-87
2021/12/12 07:10:52;;;;;;;4.95;1.58;;;;;;;-1.64;94.51;94769.56;4907353;29;20042;-87
2021/12/12 07:13:18;;;;;;;2.80;1.40;;;;;;;-1.43;88.63;94781.66;4921524;29;20353;-87
2021/12/12 07:15:49;;;;;;;2.88;1.48;;;;;;;-1.10;85.07;94782.94;4907333;29;20031;-87
2021/12/12 07:18:18;;;;;;;4.40;1.80;;;;;;;-0.79;83.14;94786.97;4922696;29;20031;-87
2021/12/12 07:20:47;;;;;;;3.50;1.80;;;;;;;-0.52;81.09;94784.59;4922852;29;20122;-87
2021/12/12 07:23:13;;;;;;;2.22;1.48;;;;;;;-0.44;79.47;94787.03;4922477;29;20027;-87
2021/12/12 07:25:40;;;;;;;3.88;1.75;;;;;;;-0.16;78.99;94794.75;4923112;29;20059;-87
2021/12/12 07:28:06;;;;;;;2.63;1.52;;;;;;;-0.21;81.80;94796.31;4922745;29;20405;-87
2021/12/12 07:30:32;;;;;;;2.65;1.48;;;;;;;-0.19;79.91;94797.69;4922724;29;20035;-87
2021/12/12 07:32:58;;;;;;;4.90;2.17;;;;;;;-0.13;82.50;94801.31;4921801;29;20039;-87
2021/12/12 07:35:26;;;;;;;2.28;1.48;;;;;;;-0.17;91.29;94803.44;4939506;29;20036;-87
2021/12/12 07:37:52;;;;;;;2.67;1.50;;;;;;;-0.19;83.99;94804.66;4922708;29;20036;-87
2021/12/12 07:40:19;;;;;;;2.47;1.45;;;;;;;0.18;79.20;94809.59;4907014;29;20043;-87
2021/12/12 07:42:46;;;;;;;3.97;1.70;;;;;;;0.10;82.93;94811.34;4906531;29;20031;-87
2021/12/12 07:45:13;;;;;;;2.55;1.50;;;;;;;0.26;82.15;94815.38;4920876;29;20042;-87
2021/12/12 07:47:38;;;;;;;3.53;2.00;;;;;;;0.18;85.19;94823.28;4923136;29;20345;-87
2021/12/12 07:50:07;;;;;;;4.55;1.80;;;;;;;0.18;92.37;94815.53;4922544;29;20035;-87
2021/12/12 07:52:33;;;;;;;2.63;1.38;;;;;;;0.22;86.81;94826.28;4921493;29;20104;-87
2021/12/12 07:54:58;;;;;;;3.10;1.63;;;;;;;0.49;84.82;94821.25;4906896;29;20039;-87
2021/12/12 07:57:27;;;;;;;2.42;1.60;;;;;;;0.56;78.14;94825.44;4939486;29;20043;-87
2021/12/12 07:59:54;;;;;;;3.63;1.65;;;;;;;0.67;74.19;94820.72;4922682;29;20330;-87
2021/12/12 08:02:22;;;;;;;2.83;1.45;;;;;;;0.96;69.44;94824.75;4922014;29;20071;-88
2021/12/12 08:04:48;;;;;;;3.80;2.05;;;;;;;1.13;66.38;94825.19;4922466;29;20054;-87
2021/12/12 08:07:17;;;;;;;2.75;1.73;;;;;;;1.31;66.99;94830.78;4922416;29;20040;-88
2021/12/12 08:09:45;;;;;;;4.20;2.00;;;;;;;1.15;75.18;94831.94;4906825;29;20059;-88
2021/12/12 08:12:14;;;;;;;2.83;1.52;;;;;;;0.97;79.37;94835.88;4905829;29;20039;-88
2021/12/12 08:14:40;;;;;;;3.55;1.50;;;;;;;0.72;86.45;94840.75;4939226;29;20489;-87
2021/12/12 08:17:06;;;;;;;2.83;1.58;;;;;;;0.37;88.94;94851.94;4906848;29;20042;-88
2021/12/12 08:19:33;;;;;;;2.25;1.30;;;;;;;0.52;89.46;94855.19;4906021;29;20035;-87
2021/12/12 08:22:07;;;;;;;2.90;1.48;;;;;;;0.33;95.63;94854.09;4906374;29;20070;-87
2021/12/12 08:24:34;;;;;;;4.55;1.63;;;;;;;0.10;99.28;94851.78;4941312;29;20067;-87
2021/12/12 08:27:00;;;;;;;3.33;1.85;;;;;;;-0.04;100.00;94856.84;4941567;29;20083;-87
2021/12/12 08:29:26;;;;;;;2.63;1.50;;;;;;;-0.28;100.00;94858.06;4909983;29;20035;-86
2021/12/12 08:31:52;;;;;;;3.45;1.73;;;;;;;-0.04;100.00;94856.84;4925103;29;20472;-87
2021/12/12 08:34:17;;;;;;;3.60;1.83;;;;;;;0.11;100.00;94859.31;4925990;29;20055;-87
2021/12/12 08:36:50;;;;;;;4.88;1.60;;;;;;;0.18;100.00;94863.72;4925688;29;20087;-87
2021/12/12 08:39:16;;;;;;;2.75;1.75;;;;;;;0.15;100.00;94869.25;4925443;29;20028;-87
2021/12/12 08:41:44;;;;;;;4.07;1.77;;;;;;;0.20;100.00;94872.06;4942149;29;20122;-87
2021/12/12 08:44:10;;;;;;;3.55;1.88;;;;;;;0.33;100.00;94879.06;4910038;29;20028;-87
2021/12/12 08:46:42;;;;;;;3.17;1.60;;;;;;;0.32;100.00;94882.63;4925275;29;20254;-87
2021/12/12 08:49:11;;;;;;;3.60;1.80;;;;;;;0.35;100.00;94875.31;4909493;29;20038;-87
2021/12/12 08:51:45;;;;;;;2.63;1.48;;;;;;;0.38;100.00;94880.09;4924840;29;20036;-87
2021/12/12 08:54:15;;;;;;;3.03;1.40;;;;;;;0.50;100.00;94888.09;4909987;29;20086;-87
2021/12/12 08:56:48;;;;;;;3.00;1.50;;;;;;;0.60;100.00;94887.75;4910007;29;20480;-87
2021/12/12 08:59:21;;;;;;;2.60;1.48;;;;;;;0.68;100.00;94886.78;4940971;29;20024;-87
2021/12/12 09:01:49;;;;;;;3.67;1.60;;;;;;;0.86;99.43;94886.22;4924302;29;20028;-87
2021/12/12 09:04:14;;;;;;;2.75;1.38;;;;;;;0.89;100.00;94890.22;4925461;29;20035;-87
2021/12/12 09:06:54;;;;;;;2.72;1.60;;;;;;;1.05;100.00;94892.44;4925098;29;20042;-87
2021/12/12 09:09:22;;;;;;;2.92;1.40;;;;;;;1.28;99.72;94901.66;4925120;29;20035;-87
2021/12/12 09:12:12;;;;;;;2.28;1.25;;;;;;;1.35;99.75;94899.09;4924644;29;20063;-87
2021/12/12 09:15:11;;;;;;;3.10;1.40;;;;;;;1.41;100.00;94899.09;4941782;29;20429;-87
2021/12/12 09:17:45;;;;;;;2.13;1.27;;;;;;;1.58;100.00;94903.06;4924888;29;20115;-87
2021/12/12 09:20:21;;;;;;;3.80;1.70;;;;;;;1.66;100.00;94905.47;4924909;29;20433;-87
2021/12/12 09:23:00;;;;;;;2.47;1.50;;;;;;;1.71;100.00;94897.16;4924096;29;20046;-87
2021/12/12 09:25:35;;;;;;;2.58;1.67;;;;;;;1.73;100.00;94898.56;4909512;29;20059;-87
2021/12/12 09:28:26;;;;;;;2.85;1.45;;;;;;;1.76;100.00;94905.09;4925559;29;20061;-87
2021/12/12 09:30:53;;;;;;;2.47;1.58;;;;;;;1.83;95.02;94906.69;4914509;29;20039;-87
2021/12/12 09:33:33;;;;;;;2.17;1.15;;;;;;;1.93;92.51;94911.44;4941139;29;20034;-87
2021/12/12 09:36:11;;;;;;;2.17;1.30;;;;;;;1.92;100.00;94907.28;4924060;29;20336;-87
2021/12/12 09:38:58;;;;;;;2.33;1.15;;;;;;;1.93;99.12;94913.25;4924646;29;20118;-87
2021/12/12 09:41:49;;;;;;;4.30;1.65;;;;;;;1.93;94.50;94915.84;4908651;29;20433;-88
2021/12/12 09:44:37;;;;;;;2.95;1.27;;;;;;;1.89;94.61;94905.09;4941248;29;20118;-88
2021/12/12 09:47:59;;;;;;;2.10;1.13;;;;;;;1.88;99.47;94910.47;4941191;29;20063;-89
2021/12/12 09:51:19;;;;;;;2.45;1.23;;;;;;;1.76;100.00;94905.91;4924251;29;20035;-89
2021/12/12 09:54:07;;;;;;;1.55;1.10;;;;;;;1.82;100.00;94904.31;4940747;29;20039;-88
2021/12/12 09:56:57;;;;;;;2.42;1.25;;;;;;;2.02;100.00;94909.47;4924354;29;20087;-90
2021/12/12 09:59:40;;;;;;;4.38;1.60;;;;;;;2.15;100.00;94913.03;4940953;29;20038;-88
2021/12/12 10:02:14;;;;;;;3.28;1.30;;;;;;;2.31;100.00;94917.81;4940461;29;20123;-88
2021/12/12 10:04:53;;;;;;;1.55;1.10;;;;;;;2.31;75.19;94912.63;4940807;29;20348;-88
2021/12/12 10:07:38;;;;;;;4.35;1.20;;;;;;;2.30;80.10;94910.25;4908539;29;20035;-89
2021/12/12 10:10:10;;;;;;;2.88;1.30;;;;;;;2.38;85.06;94897.88;4924020;29;20023;-88
2021/12/12 10:12:41;;;;;;;3.10;1.52;;;;;;;2.54;80.42;94901.84;4923585;29;20032;-87
2021/12/12 10:15:16;;;;;;;2.08;1.20;;;;;;;2.62;79.82;94895.66;4923962;29;20034;-87
2021/12/12 10:17:58;;;;;;;1.80;1.10;;;;;;;2.61;88.16;94895.84;4923816;29;20036;-87
2021/12/12 10:21:05;;;;;;;1.73;1.20;;;;;;;2.81;79.90;94898.38;4908396;29;20122;-87
2021/12/12 10:23:55;;;;;;;2.00;1.10;;;;;;;2.80;76.31;94904.53;4847570;29;20025;-87
2021/12/12 10:26:34;;;;;;;3.15;1.33;;;;;;;2.95;73.00;94899.13;4863666;29;20475;-87
2021/12/12 10:29:04;;;;;;;1.92;1.13;;;;;;;2.87;72.62;94891.56;4920893;29;20439;-87
2021/12/12 10:31:34;;;;;;;2.33;1.23;;;;;;;3.16;71.19;94898.03;4938779;29;20028;-87
2021/12/12 10:34:05;;;;;;;2.75;1.00;;;;;;;3.53;73.42;94887.84;4939293;29;20062;-88
2021/12/12 10:36:38;;;;;;;1.92;1.10;;;;;;;3.69;68.91;94903.88;4923731;29;20086;-87
2021/12/12 10:39:22;;;;;;;7.50;1.02;;;;;;;4.03;53.52;94903.63;4938612;29;20314;-88
2021/12/12 10:41:55;;;;;;;0.85;0.55;;;;;;;4.31;54.41;94903.19;4907203;29;20117;-88
2021/12/12 10:44:20;;;;;;;;;;;;;;;4.21;52.02;94902.88;4908594;29;20030;-89
2021/12/12 10:47:04;;;;;;;5.10;1.10;;;;;;;4.23;52.02;94906.84;4938789;29;19914;-88
2021/12/12 10:49:37;;;;;;;1.48;1.00;;;;;;;4.42;49.66;94900.88;4922815;29;20712;-88
2021/12/12 10:52:12;;;;;;;2.22;1.00;;;;;;;4.53;49.90;94911.38;4938528;29;20023;-88
2021/12/12 10:54:59;;;;;;;2.45;1.00;;;;;;;4.58;49.38;94913.28;4923224;29;20035;-88
2021/12/12 10:57:29;;;;;;;4.72;1.60;;;;;;;4.63;49.88;94912.66;4938850;29;20060;-88
2021/12/12 11:00:03;;;;;;;2.20;1.27;;;;;;;4.70;50.79;94915.16;4923292;29;20028;-88
2021/12/12 11:02:34;;;;;;;3.42;1.15;;;;;;;4.69;48.07;94918.78;4922559;29;20030;-88
2021/12/12 11:05:04;;;;;;;2.28;0.98;;;;;;;4.89;50.84;94913.38;4938897;29;20023;-88
2021/12/12 11:07:39;;;;;;;1.67;0.85;;;;;;;4.95;48.87;94915.13;4938875;29;20024;-89
2021/12/12 11:10:07;;;;;;;1.35;0.90;;;;;;;4.88;47.15;94915.19;4938882;29;20437;-89
2021/12/12 11:13:03;;;;;;;2.38;1.20;;;;;;;5.01;49.95;94919.44;4939163;29;20028;-88
2021/12/12 11:15:44;;;;;;;4.50;1.02;;;;;;;4.84;51.41;94915.84;4922823;29;20053;-89
2021/12/12 11:18:50;;;;;;;1.63;0.80;;;;;;;4.92;50.81;94920.72;4938765;29;20023;-89
2021/12/12 11:21:27;;;;;;;1.13;0.70;;;;;;;4.92;49.53;94918.94;4900103;29;20080;-89
2021/12/12 11:24:04;;;;;;;1.10;0.80;;;;;;;5.07;49.29;94915.16;4900215;29;20024;-89
2021/12/12 11:26:34;;;;;;;1.25;0.70;;;;;;;4.93;49.87;94925.72;4924520;29;20040;-89
2021/12/12 11:29:03;;;;;;;1.10;0.80;;;;;;;5.23;49.74;94922.34;4939462;29;20027;-89
2021/12/12 11:31:35;;;;;;;1.90;0.85;;;;;;;5.29;51.70;94927.69;4922500;29;20028;-89
2021/12/12 11:34:02;;;;;;;3.03;0.65;;;;;;;5.40;47.28;94926.94;4938425;29;20079;-89
2021/12/12 11:36:32;;;;;;;1.10;0.60;;;;;;;5.29;46.79;94920.69;4938719;29;20337;-89
2021/12/12 11:39:42;;;;;;;4.60;1.10;;;;;;;5.36;44.82;94923.19;4930807;29;20035;-89
2021/12/12 11:42:28;;;;;;;0.82;0.60;;;;;;;5.46;49.06;94928.66;4861924;29;20040;-87
2021/12/12 11:45:03;;;;;;;2.28;0.95;;;;;;;5.37;45.66;94920.38;4847296;29;20085;-89
2021/12/12 11:47:35;;;;;;;1.52;0.73;;;;;;;5.49;46.73;94923.03;4900772;29;20044;-92
2021/12/12 11:50:38;;;;;;;0.80;0.60;;;;;;;5.51;44.43;94920.19;4919381;29;20075;-89
2021/12/12 11:53:35;;;;;;;1.52;0.82;;;;;;;5.47;47.71;94914.66;4920070;29;20039;-89
2021/12/12 11:56:09;;;;;;;2.17;1.13;;;;;;;5.55;46.40;94921.34;4903187;29;20154;-89
2021/12/12 11:58:57;;;;;;;1.50;0.90;;;;;;;5.49;46.35;94917.03;4919652;29;20028;-89
2021/12/12 12:01:49;;;;;;;2.17;1.10;;;;;;;5.40;42.50;94919.13;4913034;29;20036;-89
2021/12/12 12:04:40;;;;;;;1.77;1.17;;;;;;;5.49;42.90;94917.81;4907586;29;20063;-89
2021/12/12 12:07:41;;;;;;;11.88;6.93;;;;;;;5.59;45.60;94914.69;4923007;29;20083;-89
2021/12/12 12:10:09;;;;;;;1.65;0.75;;;;;;;5.87;48.37;94920.28;4907038;29;20122;-89
2021/12/12 12:12:41;;;;;;;2.00;1.10;;;;;;;6.01;44.03;94926.91;4928162;29;20329;-89
2021/12/12 12:15:58;;;;;;;2.38;1.15;;;;;;;5.85;45.13;94914.50;4925966;29;20031;-89
2021/12/12 12:18:30;;;;;;;2.65;1.30;;;;;;;5.79;44.65;94924.00;4910839;29;20035;-89
2021/12/12 12:21:34;;;;;;;2.38;1.30;;;;;;;5.74;45.30;94914.28;4942765;29;20066;-89
2021/12/12 12:24:13;;;;;;;;;;;;;;;5.76;46.12;94912.25;4943095;29;20028;-89
2021/12/12 12:27:02;;;;;;;3.53;1.40;;;;;;;5.80;44.72;94910.78;4925694;29;19961;-90
2021/12/12 12:29:28;;;;;;;3.45;1.30;;;;;;;5.91;46.06;94911.03;4925762;29;20031;-89
2021/12/12 12:32:31;;;;;;;2.22;1.20;;;;;;;5.94;44.28;94910.59;4942443;29;20078;-89
2021/12/12 12:35:14;;;;;;;1.90;0.93;;;;;;;5.83;42.20;94911.34;4942487;29;20035;-89
2021/12/12 12:38:17;;;;;;;2.28;1.08;;;;;;;5.84;46.05;94913.75;4942499;29;20082;-89
2021/12/12 12:41:20;;;;;;;2.83;1.30;;;;;;;5.99;45.35;94910.69;4925541;29;20032;-89
2021/12/12 12:44:13;;;;;;;2.20;1.20;;;;;;;5.92;43.21;94910.00;4925282;29;20028;-89
2021/12/12 12:47:26;;;;;;;2.10;1.15;;;;;;;6.06;42.13;94905.41;4925442;29;20031;-90
2021/12/12 12:50:12;;;;;;;1.85;1.10;;;;;;;6.08;45.96;94908.56;4942109;29;20400;-89
2021/12/12 12:52:56;;;;;;;2.08;1.00;;;;;;;6.12;42.43;94911.53;4942157;29;20094;-90
2021/12/12 12:55:24;;;;;;;;;;;;;;;6.14;42.84;94912.91;4925735;29;20031;-89
2021/12/12 12:57:53;;;;;;;2.45;1.05;;;;;;;6.12;40.71;94912.34;4941976;29;19911;-89
2021/12/12 13:00:22;;;;;;;2.55;1.10;;;;;;;6.02;39.80;94918.06;4925244;29;20028;-90
2021/12/12 13:03:15;;;;;;;2.10;1.25;;;;;;;6.15;40.83;94914.47;4924921;29;20045;-88
2021/12/12 13:05:59;;;;;;;2.10;1.08;;;;;;;6.29;44.02;94907.22;4941816;29;20039;-89
2021/12/12 13:08:27;;;;;;;;;;;;;;;6.36;41.64;94910.53;4925440;29;20038;-90
2021/12/12 13:10:54;;;;;;;2.55;1.30;;;;;;;6.20;39.18;94906.78;4940800;29;19942;-89
2021/12/12 13:13:27;;;;;;;1.88;1.10;;;;;;;6.19;40.10;94907.03;4940742;29;20476;-89
2021/12/12 13:16:02;;;;;;;3.60;0.70;;;;;;;6.20;42.00;94908.59;4940989;29;20042;-89
2021/12/12 13:18:37;;;;;;;2.35;1.08;;;;;;;6.17;43.10;94903.84;4925202;29;20126;-89
2021/12/12 13:21:03;;;;;;;2.92;1.20;;;;;;;6.30;41.14;94908.81;4940786;29;20417;-90
2021/12/12 13:23:59;;;;;;;4.40;2.30;;;;;;;6.20;41.22;94916.41;4923989;29;20114;-89
2021/12/12 13:26:35;;;;;;;2.28;1.02;;;;;;;6.33;42.53;94905.78;4922518;29;20134;-90
2021/12/12 13:29:20;;;;;;;3.92;1.00;;;;;;;6.40;42.91;94910.06;4905710;29;20438;-89
2021/12/12 13:31:57;;;;;;;2.55;1.30;;;;;;;6.37;42.91;94898.28;4905674;29;20426;-90
2021/12/12 13:34:44;;;;;;;3.70;1.75;;;;;;;6.30;43.18;94897.63;4905707;29;20107;-90
2021/12/12 13:37:22;;;;;;;1.50;0.88;;;;;;;6.38;41.93;94899.09;4905685;29;20066;-90
2021/12/12 13:40:11;;;;;;;2.47;1.10;;;;;;;6.35;42.70;94906.34;4922337;29;20071;-89
2021/12/12 13:42:51;;;;;;;1.52;0.70;;;;;;;6.40;44.52;94904.88;4905534;29;20046;-89
2021/12/12 13:45:36;;;;;;;1.40;0.70;;;;;;;6.26;42.68;94915.50;4922205;29;20043;-90
2021/12/12 13:48:20;;;;;;;2.03;0.85;;;;;;;6.25;44.61;94915.75;4905333;29;20442;-90
2021/12/12 13:51:01;;;;;;;2.25;0.98;;;;;;;6.15;45.98;94918.88;4922082;29;20126;-89
2021/12/12 13:53:42;;;;;;;1.98;1.00;;;;;;;6.13;44.42;94919.13;4905233;29;20099;-89
2021/12/12 13:56:29;;;;;;;1.45;0.82;;;;;;;6.19;43.55;94917.44;4905581;29;20028;-90
2021/12/12 13:59:00;;;;;;;1.73;1.10;;;;;;;6.27;44.25;94924.88;4920912;29;20122;-90
2021/12/12 14:01:36;;;;;;;3.60;1.10;;;;;;;6.15;43.20;94930.09;4889542;29;20087;-90
2021/12/12 14:04:25;;;;;;;1.50;0.93;;;;;;;6.01;45.22;94920.88;4905010;29;20071;-90
2021/12/12 14:06:50;;;;;;;1.92;0.85;;;;;;;6.00;45.05;94922.69;4904838;29;20035;-90
2021/12/12 14:09:23;;;;;;;1.35;0.88;;;;;;;5.86;43.58;94923.91;4904922;29;20046;-90
2021/12/12 14:11:50;;;;;;;1.05;0.80;;;;;;;5.71;45.83;94927.72;4904764;29;20032;-90
2021/12/12 14:14:28;;;;;;;3.28;1.23;;;;;;;5.52;45.59;94932.16;4917399;29;20337;-90
2021/12/12 14:16:59;;;;;;;2.28;1.00;;;;;;;5.37;46.75;94932.56;4940618;29;20047;-88
2021/12/12 14:19:38;;;;;;;1.75;1.05;;;;;;;4.98;47.13;94948.44;4923890;29;20055;-90
2021/12/12 14:22:05;;;;;;;2.50;1.20;;;;;;;4.66;47.50;94948.53;4923398;29;20038;-90
2021/12/12 14:24:32;;;;;;;2.72;1.10;;;;;;;4.43;47.45;94938.78;4923466;29;20344;-89
2021/12/12 14:27:01;;;;;;;3.13;1.52;;;;;;;4.26;47.18;94944.53;4923740;29;20028;-90
2021/12/12 14:29:33;;;;;;;2.65;1.45;;;;;;;4.39;46.92;94949.59;4923439;29;20032;-90
2021/12/12 14:32:06;;;;;;;3.60;1.50;;;;;;;4.07;47.87;94943.69;4908072;29;20119;-89
2021/12/12 14:34:33;;;;;;;;;;;;;;;4.09;48.55;94950.25;4940765;29;20480;-89
2021/12/12 14:37:06;;;;;;;3.58;1.70;;;;;;;4.00;48.65;94943.72;4907256;29;19911;-90
2021/12/12 14:39:32;;;;;;;3.67;2.03;;;;;;;4.09;48.31;94957.25;4923045;29;20027;-89
2021/12/12 14:42:07;;;;;;;4.15;1.90;;;;;;;3.93;47.98;94958.56;4923268;29;20030;-89
2021/12/12 14:44:37;;;;;;;4.35;1.50;;;;;;;3.76;49.27;94961.66;4919328;29;20374;-90
2021/12/12 14:47:14;;;;;;;3.13;1.65;;;;;;;3.70;49.49;94956.53;4913751;29;20083;-90
2021/12/12 14:49:54;;;;;;;2.78;1.50;;;;;;;3.70;50.65;94956.53;4907316;29;20028;-90
2021/12/12 14:52:26;;;;;;;3.08;1.60;;;;;;;3.76;50.00;94960.84;4907217;29;20106;-89
2021/12/12 14:55:00;;;;;;;2.75;1.70;;;;;;;3.62;51.22;94967.94;4939810;29;20063;-89
2021/12/12 14:57:30;;;;;;;3.50;1.17;;;;;;;3.49;50.49;94961.00;4922990;29;20144;-89
2021/12/12 14:59:59;;;;;;;1.90;1.40;;;;;;;3.73;50.51;94967.25;4907791;29;20032;-89
2021/12/12 15:02:36;;;;;;;3.17;1.42;;;;;;;3.46;51.73;94967.41;4923004;29;20336;-89
2021/12/12 15:05:06;;;;;;;2.85;1.52;;;;;;;3.35;52.84;94968.84;4907851;29;20081;-89
2021/12/12 15:07:39;;;;;;;3.47;1.58;;;;;;;3.45;51.87;94975.38;4922901;29;20078;-90